Time;durP1;ratioP1;P1;durP2;ratioP2;P2;SDS_P1;SDS_P2;PMS_P1;PMS_P2;Temp;Humidity;BMP_temperature;BMP_pressure;BME280_temperature;BME280_humidity;BME280_pressure;Samples;Min_cycle;Max_cycle;Signal;HPM_P1;HPM_P2
2022/11/15 00:01:47;;;;;;;;;;;;;;;8.99;81.00;100520.13;5054731;28;19909;-80
2022/11/15 00:04:13;;;;;;;;;;;;;;;9.00;81.26;100519.22;5054788;28;19909;-80
2022/11/15 00:06:38;;;;;;;;;;;;;;;9.05;80.66;100519.25;5054734;28;19988;-80
2022/11/15 00:09:03;;;;;;;;;;;;;;;9.13;80.64;100518.41;5055144;28;19951;-80
2022/11/15 00:11:29;;;;;;;;;;;;;;;9.09;80.08;100515.75;5054778;28;19967;-80
2022/11/15 00:13:55;;;;;;;;;;;;;;;9.19;79.93;100519.28;5054664;28;19915;-79
2022/11/15 00:16:21;;;;;;;;;;;;;;;9.14;79.48;100519.28;5054640;28;19913;-80
2022/11/15 00:18:46;;;;;;;;;;;;;;;9.02;80.22;100521.84;5054672;28;19915;-79
2022/11/15 00:21:12;;;;;;;;;;;;;;;9.14;79.81;100508.75;5054829;28;19912;-79
2022/11/15 00:23:37;;;;;;;;;;;;;;;9.21;79.50;100521.06;5054779;28;20338;-80
2022/11/15 00:26:03;;;;;;;;;;;;;;;9.20;78.91;100514.03;5054387;28;19915;-80
2022/11/15 00:28:29;;;;;;;;;;;;;;;9.31;79.15;100514.97;5054529;28;19912;-80
2022/11/15 00:33:57;;;;;;;;;;;;;;;9.28;78.93;100504.44;5054420;28;19963;-79
2022/11/15 00:36:22;;;;;;;;;;;;;;;9.29;78.57;100498.28;5054623;28;20298;-80
2022/11/15 00:38:47;;;;;;;;;;;;;;;9.23;78.31;100494.75;5053981;28;19909;-80
2022/11/15 00:41:13;;;;;;;;;;;;;;;9.11;79.09;100499.13;5053995;28;19971;-81
2022/11/15 00:46:41;;;;;;;;;;;;;;;8.99;79.53;100495.53;5054216;28;19910;-80
2022/11/15 00:49:06;;;;;;;;;;;;;;;8.89;79.80;100492.84;5053826;28;19909;-80
2022/11/15 00:51:31;;;;;;;;;;;;;;;8.84;80.05;100491.09;5053986;28;19931;-80
2022/11/15 00:53:56;;;;;;;;;;;;;;;8.90;79.95;100483.22;5053737;28;20320;-80
2022/11/15 00:56:22;;;;;;;;;;;;;;;8.93;79.20;100483.25;5053510;28;19909;-80
2022/11/15 00:58:47;;;;;;;;;;;;;;;8.93;79.40;100488.50;5054137;28;19939;-81
2022/11/15 01:01:13;;;;;;;;;;;;;;;9.01;79.06;100488.53;5053972;28;19909;-81
2022/11/15 01:06:41;;;;;;;;;;;;;;;8.59;80.03;100481.31;5053858;28;19939;-81
2022/11/15 01:09:07;;;;;;;;;;;;;;;8.77;80.15;100484.91;5053605;28;20279;-81
2022/11/15 01:11:33;;;;;;;;;;;;;;;8.83;79.88;100484.94;5053607;28;19908;-81
2022/11/15 01:13:58;;;;;;;;;;;;;;;8.74;80.31;100482.25;5053728;28;19947;-81
2022/11/15 01:16:24;;;;;;;;;;;;;;;8.66;80.55;100483.97;5053713;28;19913;-81
2022/11/15 01:18:50;;;;;;;;;;;;;;;8.75;79.93;100476.13;5053695;28;19931;-81
2022/11/15 01:21:17;;;;;;;;;;;;;;;8.77;79.86;100477.00;5053220;28;20393;-81
2022/11/15 01:23:43;;;;;;;;;;;;;;;8.89;79.80;100469.19;5053675;28;19915;-81
2022/11/15 01:26:11;;;;;;;;;;;;;;;8.96;78.92;100472.72;5053497;28;19909;-81
2022/11/15 01:28:37;;;;;;;;;;;;;;;8.90;79.54;100476.22;5053383;28;19908;-81
2022/11/15 01:31:03;;;;;;;;;;;;;;;8.88;79.88;100469.16;5052684;28;19952;-81
2022/11/15 01:33:29;;;;;;;;;;;;;;;9.08;79.30;100469.25;5053806;28;19966;-80
2022/11/15 01:35:55;;;;;;;;;;;;;;;9.13;78.83;100475.44;5053438;28;19912;-81
2022/11/15 01:38:20;;;;;;;;;;;;;;;9.12;78.72;100477.16;5052948;28;19948;-80
2022/11/15 01:40:46;;;;;;;;;;;;;;;9.23;78.07;100471.06;5053827;28;20329;-80
2022/11/15 01:43:25;;;;;;;;;;;;;;;9.28;78.03;100470.22;5052867;28;19908;-80
2022/11/15 01:46:17;;;;;;;;;;;;;;;9.22;78.15;100464.03;5052802;28;19909;-80
2022/11/15 01:48:42;;;;;;;;;;;;;;;8.94;79.51;100456.94;5049540;28;19958;-80
2022/11/15 01:51:10;;;;;;;;;;;;;;;9.08;78.94;100461.34;5050988;28;20333;-80
2022/11/15 01:53:36;;;;;;;;;;;;;;;9.22;78.19;100457.03;5052966;28;19908;-80
2022/11/15 01:56:03;;;;;;;;;;;;;;;9.23;78.14;100465.78;5052636;28;20014;-80
2022/11/15 01:58:29;;;;;;;;;;;;;;;9.32;77.98;100460.56;5053065;28;19909;-80
2022/11/15 02:00:54;;;;;;;;;;;;;;;9.32;78.02;100465.81;5053365;28;19955;-80
2022/11/15 02:03:23;;;;;;;;;;;;;;;9.27;77.73;100451.78;5052781;28;19909;-79
2022/11/15 02:05:49;;;;;;;;;;;;;;;9.26;77.41;100453.50;5052645;28;20046;-80
2022/11/15 02:08:19;;;;;;;;;;;;;;;9.23;78.19;100469.28;5052629;28;19912;-79
2022/11/15 02:10:45;;;;;;;;;;;;;;;9.21;78.20;100459.66;5052636;28;20349;-80
2022/11/15 02:13:10;;;;;;;;;;;;;;;9.14;79.45;100466.63;5051224;28;19934;-80
2022/11/15 02:15:40;;;;;;;;;;;;;;;9.27;79.19;100457.91;5051459;28;19909;-80
2022/11/15 02:18:11;;;;;;;;;;;;;;;9.36;78.49;100457.06;5052903;28;19911;-80
2022/11/15 02:20:49;;;;;;;;;;;;;;;9.32;78.44;100453.53;5052322;28;20267;-80
2022/11/15 02:26:23;;;;;;;;;;;;;;;9.44;78.60;100457.06;5052810;28;19962;-80
2022/11/15 02:28:58;;;;;;;;;;;;;;;9.32;79.43;100452.66;5052303;28;19911;-80
2022/11/15 02:31:36;;;;;;;;;;;;;;;9.47;78.42;100451.81;5052473;28;19912;-81
2022/11/15 02:34:23;;;;;;;;;;;;;;;9.31;78.73;100450.88;5052076;28;19908;-81
2022/11/15 02:37:00;;;;;;;;;;;;;;;9.47;78.59;100457.94;5052261;28;19974;-81
2022/11/15 02:39:34;;;;;;;;;;;;;;;9.25;78.22;100449.13;5052653;28;19909;-81
2022/11/15 02:41:59;;;;;;;;;;;;;;;9.27;78.31;100450.00;5052203;28;19908;-81
2022/11/15 02:44:30;;;;;;;;;;;;;;;9.21;78.59;100447.38;5051982;28;19911;-81
2022/11/15 02:47:14;;;;;;;;;;;;;;;9.25;78.12;100446.50;5052026;28;19948;-81
2022/11/15 02:49:41;;;;;;;;;;;;;;;9.24;77.82;100441.22;5052436;28;19966;-81
2022/11/15 02:52:06;;;;;;;;;;;;;;;8.90;78.84;100446.41;5052328;28;19908;-81
2022/11/15 02:54:32;;;;;;;;;;;;;;;9.05;79.16;100450.81;5052271;28;19965;-81
2022/11/15 02:57:02;;;;;;;;;;;;;;;8.90;79.71;100449.91;5052541;28;19909;-82
2022/11/15 02:59:31;;;;;;;;;;;;;;;8.84;79.50;100449.00;5052146;28;19909;-82
2022/11/15 03:01:56;;;;;;;;;;;;;;;9.00;78.81;100447.31;5054025;28;20375;-82
2022/11/15 03:04:40;;;;;;;;;;;;;;;8.98;78.79;100442.03;5055673;28;19908;-82
2022/11/15 03:10:12;;;;;;;;;;;;;;;9.06;78.80;100431.53;5056084;28;19912;-81
2022/11/15 03:12:51;;;;;;;;;;;;;;;9.12;77.80;100432.41;5055540;28;19915;-81
2022/11/15 03:15:16;;;;;;;;;;;;;;;9.17;78.50;100434.19;5055656;28;20111;-81
2022/11/15 03:17:52;;;;;;;;;;;;;;;9.28;77.92;100429.81;5055883;28;19955;-81
2022/11/15 03:20:18;;;;;;;;;;;;;;;9.23;78.00;100431.56;5055725;28;19909;-81
2022/11/15 03:22:45;;;;;;;;;;;;;;;9.30;78.15;100420.19;5055904;28;19967;-81
2022/11/15 03:25:13;;;;;;;;;;;;;;;9.34;77.73;100429.81;5055332;28;19909;-81
2022/11/15 03:27:41;;;;;;;;;;;;;;;9.37;77.15;100439.50;5055913;28;19919;-81
2022/11/15 03:30:08;;;;;;;;;;;;;;;9.41;77.69;100430.75;5055773;28;19913;-81
2022/11/15 03:33:03;;;;;;;;;;;;;;;9.32;77.85;100429.81;5055761;28;21763;-80
2022/11/15 03:35:32;;;;;;;;;;;;;;;9.36;77.21;100427.19;5053517;28;19963;-80
2022/11/15 03:37:57;;;;;;;;;;;;;;;9.14;77.67;100428.06;5055806;28;19909;-81
2022/11/15 03:40:25;;;;;;;;;;;;;;;9.30;77.73;100428.09;5055430;28;20380;-81
2022/11/15 03:43:11;;;;;;;;;;;;;;;9.00;77.77;100434.13;5055238;28;19909;-81
2022/11/15 03:45:42;;;;;;;;;;;;;;;9.01;77.54;100428.88;5044139;28;19909;-80
2022/11/15 03:48:13;;;;;;;;;;;;;;;8.94;77.50;100416.56;5054984;28;19916;-82
2022/11/15 03:50:39;;;;;;;;;;;;;;;8.76;77.98;100415.63;5055832;28;19909;-81
2022/11/15 03:53:04;;;;;;;;;;;;;;;8.88;77.57;100412.19;5055005;28;20003;-81
2022/11/15 03:55:31;;;;;;;;;;;;;;;8.76;77.75;100413.00;5055556;28;19915;-81
2022/11/15 03:57:58;;;;;;;;;;;;;;;9.00;77.17;100398.16;5055231;28;19913;-81
2022/11/15 04:00:23;;;;;;;;;;;;;;;8.94;77.26;100403.41;5055706;28;19930;-81
2022/11/15 04:02:49;;;;;;;;;;;;;;;8.99;77.60;100399.06;5054475;28;20422;-80
2022/11/15 04:05:14;;;;;;;;;;;;;;;8.99;76.79;100396.44;5055130;28;19939;-81
2022/11/15 04:07:39;;;;;;;;;;;;;;;8.98;76.99;100399.94;5054910;28;20259;-81
2022/11/15 04:10:05;;;;;;;;;;;;;;;8.91;76.94;100401.66;5054567;28;19971;-81
2022/11/15 04:12:37;;;;;;;;;;;;;;;8.93;77.68;100393.78;5054942;28;19909;-82
2022/11/15 04:15:08;;;;;;;;;;;;;;;9.03;76.79;100389.41;5054341;28;19915;-81
2022/11/15 04:17:35;;;;;;;;;;;;;;;9.08;76.94;100395.56;5055089;28;19944;-81
2022/11/15 04:25:29;;;;;;;;;;;;;;;8.90;77.30;100388.50;5054244;28;19943;-80
2022/11/15 04:27:54;;;;;;;;;;;;;;;8.87;77.33;100384.09;5055006;28;19908;-81
2022/11/15 04:30:20;;;;;;;;;;;;;;;8.97;77.09;100385.00;5054919;28;19920;-81
2022/11/15 04:37:11;;;;;;;;;;;;;;;9.10;76.63;100389.44;5054739;28;19982;-81
2022/11/15 04:38:34;;;;;;;;;;;;;;;9.15;76.88;100389.44;5054149;28;19911;-80
2022/11/15 04:40:59;;;;;;;;;;;;;;;9.07;76.69;100385.91;5054652;28;19912;-81
2022/11/15 04:46:27;;;;;;;;;;;;;;;9.04;76.80;100388.53;5054285;28;19962;-81
2022/11/15 04:51:55;;;;;;;;;;;;;;;9.05;76.61;100383.28;5054137;28;19916;-78
2022/11/15 04:54:21;;;;;;;;;;;;;;;9.05;76.02;100388.56;5053952;28;19908;-79
2022/11/15 04:56:46;;;;;;;;;;;;;;;8.89;76.17;100386.75;5054244;28;19913;-79
2022/11/15 04:59:11;;;;;;;;;;;;;;;8.86;76.54;100384.97;5054396;28;19904;-78
2022/11/15 05:01:36;;;;;;;;;;;;;;;8.74;77.23;100384.94;5053599;28;20375;-78
2022/11/15 05:04:20;;;;;;;;;;;;;;;8.76;76.62;100384.06;5053954;28;19959;-78
2022/11/15 05:06:49;;;;;;;;;;;;;;;8.83;76.47;100381.47;5054357;28;19904;-80
2022/11/15 05:09:15;;;;;;;;;;;;;;;8.83;76.57;100376.19;5053914;28;19908;-80
2022/11/15 05:14:43;;;;;;;;;;;;;;;8.92;76.34;100387.63;5053645;28;19957;-80
2022/11/15 05:17:08;;;;;;;;;;;;;;;9.00;76.61;100386.78;5053927;28;19995;-80
2022/11/15 05:19:33;;;;;;;;;;;;;;;9.01;76.65;100386.78;5053957;28;19908;-80
2022/11/15 05:21:59;;;;;;;;;;;;;;;8.95;76.80;100387.63;5053821;28;19974;-79
2022/11/15 05:24:24;;;;;;;;;;;;;;;9.02;76.72;100391.19;5053123;28;19912;-80
2022/11/15 05:26:49;;;;;;;;;;;;;;;8.99;76.81;100393.78;5053312;28;19966;-80
2022/11/15 05:29:14;;;;;;;;;;;;;;;9.10;76.49;100389.44;5053733;28;19956;-81
2022/11/15 05:31:41;;;;;;;;;;;;;;;9.10;76.36;100384.16;5053051;28;19914;-81
2022/11/15 05:34:06;;;;;;;;;;;;;;;9.19;76.29;100387.69;5053380;28;19908;-81
2022/11/15 05:36:32;;;;;;;;;;;;;;;9.19;76.34;100385.03;5053388;28;19966;-82
2022/11/15 05:38:57;;;;;;;;;;;;;;;9.19;76.37;100380.69;5053313;28;20255;-81
2022/11/15 05:41:41;;;;;;;;;;;;;;;9.20;76.39;100382.41;5053630;28;19908;-82
2022/11/15 05:44:09;;;;;;;;;;;;;;;9.11;75.94;100382.41;5053228;28;19943;-82
2022/11/15 05:46:35;;;;;;;;;;;;;;;9.17;76.84;100385.03;5052133;28;19912;-81
2022/11/15 05:49:01;;;;;;;;;;;;;;;9.28;75.87;100392.97;5052981;28;19908;-82
2022/11/15 05:51:27;;;;;;;;;;;;;;;9.42;75.87;100393.88;5053091;28;19965;-82
2022/11/15 05:53:55;;;;;;;;;;;;;;;9.41;75.73;100394.75;5052594;28;20398;-86
2022/11/15 05:56:20;;;;;;;;;;;;;;;9.45;75.45;100391.25;5052069;28;19974;-85
2022/11/15 05:58:46;;;;;;;;;;;;;;;9.46;75.54;100403.50;5052607;28;19955;-84
2022/11/15 06:01:11;;;;;;;;;;;;;;;9.49;75.91;100398.25;5052754;28;19944;-84
2022/11/15 06:03:36;;;;;;;;;;;;;;;9.39;76.07;100417.56;5053295;28;19916;-83
2022/11/15 06:06:02;;;;;;;;;;;;;;;9.49;75.36;100413.19;5052490;28;20478;-83
2022/11/15 06:08:27;;;;;;;;;;;;;;;9.47;75.94;100414.94;5052996;28;20341;-84
2022/11/15 06:10:52;;;;;;;;;;;;;;;9.56;75.73;100408.78;5052841;28;19947;-82
2022/11/15 06:13:18;;;;;;;;;;;;;;;9.66;75.83;100415.81;5052636;28;20044;-81
2022/11/15 06:15:43;;;;;;;;;;;;;;;9.71;75.57;100418.47;5052323;28;19956;-81
2022/11/15 06:18:08;;;;;;;;;;;;;;;9.61;75.88;100412.31;5052763;28;19920;-81
2022/11/15 06:23:36;;;;;;;;;;;;;;;9.94;74.69;100410.53;5052571;28;19959;-82
2022/11/15 06:26:02;;;;;;;;;;;;;;;9.94;74.98;100418.44;5052057;28;19904;-82
2022/11/15 06:28:28;;;;;;;;;;;;;;;10.03;74.72;100419.31;5052283;28;19955;-82
2022/11/15 06:30:53;;;;;;;;;;;;;;;10.03;74.33;100414.03;5052406;28;19916;-81
2022/11/15 06:33:18;;;;;;;;;;;;;;;10.27;74.04;100419.28;5052190;28;19916;-82
2022/11/15 06:35:44;;;;;;;;;;;;;;;10.29;73.75;100417.53;5052277;28;19909;-81
2022/11/15 06:38:10;;;;;;;;;;;;;;;10.46;71.84;100405.19;5052050;28;20285;-82
2022/11/15 06:40:36;;;;;;;;;;;;;;;10.15;71.55;100409.66;5052033;28;19970;-82
2022/11/15 06:43:02;;;;;;;;;;;;;;;10.28;70.67;100413.13;5052144;28;19908;-82
2022/11/15 06:45:28;;;;;;;;;;;;;;;10.37;68.92;100415.78;5052416;28;20316;-81
2022/11/15 06:47:53;;;;;;;;;;;;;;;10.38;69.52;100413.13;5052730;28;19909;-82
2022/11/15 06:50:19;;;;;;;;;;;;;;;10.14;67.70;100415.78;5052315;28;19916;-83
2022/11/15 06:52:44;;;;;;;;;;;;;;;10.55;65.13;100412.19;5052120;28;19905;-82
2022/11/15 06:55:09;;;;;;;;;;;;;;;10.45;65.19;100405.19;5052001;28;19912;-82
2022/11/15 06:57:35;;;;;;;;;;;;;;;10.77;62.79;100412.09;5052162;28;19909;-82
2022/11/15 07:00:00;;;;;;;;;;;;;;;10.71;64.13;100415.66;5052672;28;20329;-82
2022/11/15 07:02:26;;;;;;;;;;;;;;;10.67;66.13;100408.63;5051780;28;19909;-81
2022/11/15 07:04:51;;;;;;;;;;;;;;;10.81;64.33;100406.78;5051796;28;19954;-81
2022/11/15 07:07:16;;;;;;;;;;;;;;;11.05;63.99;100403.16;5052638;28;19915;-81
2022/11/15 07:09:42;;;;;;;;;;;;;;;11.04;64.90;100401.41;5050913;28;20353;-81
2022/11/15 07:12:07;;;;;;;;;;;;;;;10.93;63.98;100405.88;5051678;28;19909;-82
2022/11/15 07:14:32;;;;;;;;;;;;;;;11.21;63.13;100398.66;5052202;28;19959;-82
2022/11/15 07:16:57;;;;;;;;;;;;;;;10.89;63.89;100405.03;5052082;28;19909;-82
2022/11/15 07:19:23;;;;;;;;;;;;;;;11.35;62.98;100397.69;5051623;28;20298;-82
2022/11/15 07:21:48;;;;;;;;;;;;;;;11.12;65.81;100398.72;5051881;28;19912;-82
2022/11/15 07:24:13;;;;;;;;;;;;;;;11.40;64.89;100394.16;5052203;28;19909;-82
2022/11/15 07:26:39;;;;;;;;;;;;;;;11.65;63.92;100399.25;5052019;28;19999;-82
2022/11/15 07:29:04;;;;;;;;;;;;;;;12.02;62.56;100393.66;5052059;28;20697;-81
2022/11/15 07:31:29;;;;;;;;;;;;;;;11.98;63.60;100390.16;5051711;28;19915;-81
2022/11/15 07:33:55;;;;;;;;;;;;;;;12.10;63.73;100388.28;5051616;28;19908;-83
2022/11/15 07:36:20;;;;;;;;;;;;;;;12.05;60.68;100388.34;5052005;28;19909;-83
2022/11/15 07:38:45;;;;;;;;;;;;;;;11.85;61.87;100383.22;5052189;28;19904;-82
2022/11/15 07:41:11;;;;;;;;;;;;;;;12.28;58.43;100376.63;5051477;28;19908;-82
2022/11/15 07:43:36;;;;;;;;;;;;;;;12.52;57.79;100378.13;5051884;28;20278;-82
2022/11/15 07:46:05;;;;;;;;;;;;;;;12.27;58.35;100381.06;5051464;28;20338;-82
2022/11/15 07:48:31;;;;;;;;;;;;;;;12.43;58.03;100372.94;5052544;28;20023;-82
2022/11/15 07:50:56;;;;;;;;;;;;;;;12.70;57.81;100377.03;5055063;28;19999;-82
2022/11/15 07:53:21;;;;;;;;;;;;;;;12.81;56.64;100374.25;5054827;28;19915;-82
2022/11/15 07:55:47;;;;;;;;;;;;;;;12.97;55.35;100378.41;5055015;28;19948;-82
2022/11/15 07:58:12;;;;;;;;;;;;;;;13.02;54.01;100376.59;5054224;28;19908;-82
2022/11/15 08:00:37;;;;;;;;;;;;;;;13.21;53.38;100376.31;5055320;28;20370;-82
2022/11/15 08:03:07;;;;;;;;;;;;;;;13.05;55.39;100379.19;5055605;28;19970;-82
2022/11/15 08:05:33;;;;;;;;;;;;;;;13.20;56.10;100372.78;5055147;28;19916;-81
2022/11/15 08:07:59;;;;;;;;;;;;;;;13.15;55.47;100374.63;5054936;28;20290;-82
2022/11/15 08:10:25;;;;;;;;;;;;;;;13.60;52.79;100372.19;5054859;28;19982;-82
2022/11/15 08:12:59;;;;;;;;;;;;;;;13.85;52.58;100376.19;5054894;28;19909;-82
2022/11/15 08:15:24;;;;;;;;;;;;;;;13.01;55.42;100368.66;5054860;28;20332;-82
2022/11/15 08:17:57;;;;;;;;;;;;;;;13.08;55.06;100370.31;5054661;28;20003;-82
2022/11/15 08:20:22;;;;;;;;;;;;;;;13.55;55.99;100360.78;5055320;28;19915;-82
2022/11/15 08:22:47;;;;;;;;;;;;;;;13.63;55.35;100363.31;5054448;28;19908;-82
2022/11/15 08:25:13;;;;;;;;;;;;;;;13.65;54.51;100355.34;5054428;28;20011;-82
2022/11/15 08:27:38;;;;;;;;;;;;;;;14.00;53.18;100362.66;5054408;28;19913;-81
2022/11/15 08:30:04;;;;;;;;;;;;;;;14.00;52.88;100354.72;5054662;28;19917;-82
2022/11/15 08:32:30;;;;;;;;;;;;;;;13.83;53.21;100349.72;5054945;28;19962;-82
2022/11/15 08:34:55;;;;;;;;;;;;;;;14.18;52.43;100347.28;5054388;28;19916;-82
2022/11/15 08:37:20;;;;;;;;;;;;;;;14.01;53.68;100345.84;5053982;28;19908;-82
2022/11/15 08:39:46;;;;;;;;;;;;;;;14.04;53.39;100348.44;5054448;28;19909;-82
2022/11/15 08:42:11;;;;;;;;;;;;;;;14.15;53.25;100349.13;5054097;28;19914;-82
2022/11/15 08:44:37;;;;;;;;;;;;;;;14.03;54.46;100349.34;5054323;28;20366;-81
2022/11/15 08:47:02;;;;;;;;;;;;;;;14.01;54.16;100342.31;5054380;28;19908;-81
2022/11/15 08:49:27;;;;;;;;;;;;;;;14.14;54.07;100343.84;5054293;28;19909;-82
2022/11/15 08:51:53;;;;;;;;;;;;;;;13.97;54.66;100339.72;5053880;28;20035;-82
2022/11/15 08:54:18;;;;;;;;;;;;;;;14.01;54.99;100342.31;5053832;28;19908;-82
2022/11/15 08:56:43;;;;;;;;;;;;;;;13.88;56.69;100339.88;5053767;28;19913;-82
2022/11/15 08:59:08;;;;;;;;;;;;;;;13.84;56.72;100334.66;5053718;28;19912;-82
2022/11/15 09:01:34;;;;;;;;;;;;;;;14.06;55.53;100325.41;5053957;28;19909;-82
2022/11/15 09:03:59;;;;;;;;;;;;;;;13.91;55.61;100323.06;5054046;28;20425;-82
2022/11/15 09:06:25;;;;;;;;;;;;;;;14.24;55.39;100318.88;5053808;28;20345;-82
2022/11/15 09:08:50;;;;;;;;;;;;;;;14.16;54.81;100318.13;5053472;28;19908;-82
2022/11/15 09:11:17;;;;;;;;;;;;;;;13.52;56.55;100309.63;5054137;28;20348;-82
2022/11/15 09:13:43;;;;;;;;;;;;;;;13.41;56.60;100305.38;5053788;28;19912;-82
2022/11/15 09:16:08;;;;;;;;;;;;;;;13.46;56.37;100299.13;5053468;28;19988;-82
2022/11/15 09:18:33;;;;;;;;;;;;;;;13.29;57.13;100297.59;5053689;28;19908;-82
2022/11/15 09:20:59;;;;;;;;;;;;;;;13.42;57.46;100288.56;5053687;28;19939;-82
2022/11/15 09:23:25;;;;;;;;;;;;;;;13.75;55.35;100278.25;5053653;28;20354;-82
2022/11/15 09:25:51;;;;;;;;;;;;;;;13.84;55.79;100277.22;5053668;28;19916;-82
2022/11/15 09:28:16;;;;;;;;;;;;;;;14.08;55.96;100274.97;5053845;28;19928;-82
2022/11/15 09:30:41;;;;;;;;;;;;;;;13.83;56.67;100274.59;5053417;28;19999;-82
2022/11/15 09:33:10;;;;;;;;;;;;;;;13.74;57.80;100263.25;5053150;28;19908;-82
2022/11/15 09:35:36;;;;;;;;;;;;;;;13.95;56.64;100269.06;5053585;28;19909;-82
2022/11/15 09:38:02;;;;;;;;;;;;;;;13.63;56.71;100259.94;5053388;28;19908;-82
2022/11/15 09:40:29;;;;;;;;;;;;;;;13.54;57.67;100260.97;5053334;28;19909;-82
2022/11/15 09:42:54;;;;;;;;;;;;;;;13.78;57.98;100253.47;5053226;28;19997;-82
2022/11/15 09:45:29;;;;;;;;;;;;;;;13.73;56.21;100250.91;5053229;28;19963;-82
2022/11/15 09:47:57;;;;;;;;;;;;;;;13.39;56.83;100255.94;5052642;28;19924;-81
2022/11/15 09:50:30;;;;;;;;;;;;;;;13.71;55.59;100254.47;5053565;28;20001;-82
2022/11/15 09:52:56;;;;;;;;;;;;;;;13.96;55.99;100239.84;5053237;28;19908;-82
2022/11/15 09:55:26;;;;;;;;;;;;;;;14.15;56.00;100236.81;5052765;28;19959;-82
2022/11/15 09:58:00;;;;;;;;;;;;;;;14.14;57.20;100229.75;5052673;28;20378;-82
2022/11/15 10:00:33;;;;;;;;;;;;;;;14.22;54.39;100226.94;5052623;28;19952;-82
2022/11/15 10:03:24;;;;;;;;;;;;;;;14.48;53.49;100229.03;5039956;28;19920;-82
2022/11/15 10:15:01;;;;;;;;;;;;;;;14.47;53.48;100216.66;5049889;28;19943;-82
2022/11/15 10:18:02;;;;;;;;;;;;;;;14.60;53.09;100210.19;5052536;28;19909;-82
2022/11/15 10:20:29;;;;;;;;;;;;;;;14.31;54.76;100202.84;5030192;28;19909;-84
2022/11/15 10:23:01;;;;;;;;;;;;;;;14.21;55.67;100196.00;5042644;28;19908;-83
2022/11/15 10:25:28;;;;;;;;;;;;;;;14.29;54.37;100196.72;5052510;28;19915;-83
2022/11/15 10:28:12;;;;;;;;;;;;;;;14.44;55.26;100188.41;5052507;28;19913;-82
2022/11/15 10:30:38;;;;;;;;;;;;;;;14.39;55.71;100187.63;5035037;28;20434;-83
2022/11/15 10:36:13;;;;;;;;;;;;;;;14.57;54.20;100185.47;5032513;28;19954;-85
2022/11/15 10:38:50;;;;;;;;;;;;;;;14.16;54.36;100177.53;5032417;28;20022;-83
2022/11/15 10:41:18;;;;;;;;;;;;;;;14.16;54.20;100180.19;5032668;28;19908;-81
2022/11/15 10:43:44;;;;;;;;;;;;;;;14.44;53.35;100174.25;5032129;28;19909;-83
2022/11/15 10:46:19;;;;;;;;;;;;;;;14.67;53.60;100177.28;5032612;28;19959;-83
2022/11/15 10:48:45;;;;;;;;;;;;;;;14.60;53.02;100170.38;5032741;28;20466;-83
2022/11/15 10:51:20;;;;;;;;;;;;;;;14.45;53.94;100168.03;5032136;28;19966;-83
2022/11/15 10:53:46;;;;;;;;;;;;;;;14.74;53.00;100163.84;5032258;28;19917;-82
2022/11/15 10:56:12;;;;;;;;;;;;;;;14.66;52.94;100156.09;5032036;28;19909;-83
2022/11/15 10:58:42;;;;;;;;;;;;;;;14.32;53.34;100154.19;5032620;28;19909;-83
2022/11/15 11:01:10;;;;;;;;;;;;;;;14.10;55.89;100159.97;5032196;28;19996;-82
2022/11/15 11:03:39;;;;;;;;;;;;;;;14.43;54.59;100156.59;5032481;28;19916;-82
2022/11/15 11:06:05;;;;;;;;;;;;;;;14.66;53.48;100148.97;5032465;28;19909;-82
2022/11/15 11:08:31;;;;;;;;;;;;;;;14.79;52.77;100143.38;5032284;28;20374;-82
2022/11/15 11:14:11;;;;;;;;;;;;;;;14.36;54.80;100131.09;5032099;28;20006;-81
2022/11/15 11:16:55;;;;;;;;;;;;;;;14.70;53.70;100136.47;5032070;28;19909;-83
2022/11/15 11:22:32;;;;;;;;;;;;;;;14.95;53.06;100120.81;5032670;28;19912;-82
2022/11/15 11:25:09;;;;;;;;;;;;;;;14.94;52.63;100120.84;5035906;28;19909;-83
2022/11/15 11:27:43;;;;;;;;;;;;;;;14.95;52.86;100112.84;5035698;28;20364;-81
2022/11/15 11:30:09;;;;;;;;;;;;;;;15.14;53.47;100109.69;5051119;28;20314;-82
2022/11/15 11:32:46;;;;;;;;;;;;;;;14.96;53.37;100103.94;5035926;28;19909;-82
2022/11/15 11:35:14;;;;;;;;;;;;;;;14.85;53.93;100092.75;5035591;28;19924;-83
2022/11/15 11:37:59;;;;;;;;;;;;;;;15.11;53.72;100088.53;5035654;28;19992;-82
2022/11/15 11:40:36;;;;;;;;;;;;;;;14.73;54.03;100093.91;5035369;28;20387;-83
2022/11/15 11:43:13;;;;;;;;;;;;;;;14.67;54.95;100091.44;5035381;28;19939;-82
2022/11/15 11:45:49;;;;;;;;;;;;;;;14.31;55.42;100086.09;5035343;28;19919;-82
2022/11/15 11:48:27;;;;;;;;;;;;;;;14.53;54.71;100075.81;5035577;28;19916;-82
2022/11/15 11:50:53;;;;;;;;;;;;;;;14.93;54.46;100073.94;5035408;28;20032;-82
2022/11/15 11:53:18;;;;;;;;;;;;;;;14.74;53.98;100074.44;5035267;28;19959;-82
2022/11/15 11:55:46;;;;;;;;;;;;;;;14.78;53.62;100070.78;5035057;28;19952;-80
2022/11/15 11:58:22;;;;;;;;;;;;;;;14.74;53.67;100071.78;5035256;28;19909;-83
2022/11/15 12:00:51;;;;;;;;;;;;;;;14.72;54.18;100065.66;5035404;28;19915;-82
2022/11/15 12:03:16;;;;;;;;;;;;;;;14.80;53.64;100065.44;5035298;28;20256;-81
2022/11/15 12:05:47;;;;;;;;;;;;;;;14.78;53.39;100057.53;5034298;28;19971;-83
2022/11/15 12:08:22;;;;;;;;;;;;;;;14.78;53.92;100056.63;5034965;28;19959;-81
2022/11/15 12:10:51;;;;;;;;;;;;;;;14.98;54.02;100048.13;5034975;28;19940;-82
2022/11/15 12:13:19;;;;;;;;;;;;;;;15.09;53.59;100046.06;5035071;28;19909;-80
2022/11/15 12:15:50;;;;;;;;;;;;;;;15.14;53.27;100044.13;5033609;28;20260;-81
2022/11/15 12:18:16;;;;;;;;;;;;;;;14.92;54.24;100045.63;5034708;28;19909;-82
2022/11/15 12:20:52;;;;;;;;;;;;;;;14.76;54.55;100032.78;5034990;28;19916;-82
2022/11/15 12:23:41;;;;;;;;;;;;;;;15.00;54.63;100033.03;5034467;28;19909;-82
2022/11/15 12:26:14;;;;;;;;;;;;;;;14.53;55.99;100037.78;5029081;28;20302;-80
2022/11/15 12:28:47;;;;;;;;;;;;;;;14.81;55.72;100028.22;5034791;28;19909;-81
2022/11/15 12:31:24;;;;;;;;;;;;;;;15.00;54.63;100030.38;5034546;28;19913;-81
2022/11/15 12:33:54;;;;;;;;;;;;;;;14.85;55.83;100021.03;5033089;28;19960;-81
2022/11/15 12:36:20;;;;;;;;;;;;;;;14.98;55.90;100021.56;5034887;28;19909;-81
2022/11/15 12:38:54;;;;;;;;;;;;;;;14.77;56.00;100021.25;5034434;28;20381;-81
2022/11/15 12:41:20;;;;;;;;;;;;;;;14.86;55.79;100021.00;5034541;28;19909;-81
2022/11/15 12:43:46;;;;;;;;;;;;;;;15.04;55.60;100019.63;5034246;28;19912;-81
2022/11/15 12:49:27;;;;;;;;;;;;;;;15.33;54.43;100014.38;5034915;28;19964;-81
2022/11/15 12:51:58;;;;;;;;;;;;;;;15.38;54.56;100008.00;5034369;28;19905;-81
2022/11/15 12:54:23;;;;;;;;;;;;;;;14.86;56.92;100002.41;5033946;28;20307;-81
2022/11/15 12:57:07;;;;;;;;;;;;;;;14.66;56.98;99994.97;5033959;28;19916;-82
2022/11/15 12:59:53;;;;;;;;;;;;;;;14.55;57.42;99990.81;5034609;28;19909;-81
2022/11/15 13:02:38;;;;;;;;;;;;;;;14.27;58.45;99991.53;5034266;28;19909;-81
2022/11/15 13:05:19;;;;;;;;;;;;;;;14.29;58.68;99981.78;5033463;28;20367;-81
2022/11/15 13:07:44;;;;;;;;;;;;;;;14.41;58.22;99984.13;5033927;28;19909;-81
2022/11/15 13:10:09;;;;;;;;;;;;;;;14.40;58.29;99985.03;5033906;28;19916;-81
2022/11/15 13:12:38;;;;;;;;;;;;;;;14.51;57.63;99979.44;5033670;28;19999;-81
2022/11/15 13:15:13;;;;;;;;;;;;;;;14.37;58.96;99978.94;5033815;28;19916;-82
2022/11/15 13:17:54;;;;;;;;;;;;;;;14.29;59.38;99977.34;5033487;28;19915;-82
2022/11/15 13:20:21;;;;;;;;;;;;;;;14.25;59.38;99974.81;5033853;28;19913;-81
2022/11/15 13:23:20;;;;;;;;;;;;;;;14.14;59.63;99972.44;5033507;28;20433;-82
2022/11/15 13:25:53;;;;;;;;;;;;;;;13.77;59.91;99975.97;5034306;28;19909;-82
2022/11/15 13:31:27;;;;;;;;;;;;;;;13.69;59.62;99964.69;5018902;28;19920;-81
2022/11/15 13:36:55;;;;;;;;;;;;;;;13.76;60.61;99961.84;5033499;28;19984;-82
2022/11/15 13:39:27;;;;;;;;;;;;;;;13.70;60.34;99969.97;5033177;28;19908;-83
2022/11/15 13:41:53;;;;;;;;;;;;;;;13.83;61.12;99959.06;5033320;28;20003;-83
2022/11/15 13:44:23;;;;;;;;;;;;;;;13.61;60.79;99954.25;5048618;28;20464;-82
2022/11/15 13:46:48;;;;;;;;;;;;;;;13.57;60.84;99955.22;5032370;28;19909;-82
2022/11/15 13:49:14;;;;;;;;;;;;;;;13.65;60.88;99955.06;5033697;28;20046;-83
2022/11/15 13:51:45;;;;;;;;;;;;;;;13.46;60.85;99958.13;5033505;28;20382;-82
2022/11/15 13:54:19;;;;;;;;;;;;;;;13.46;60.50;99952.84;5033387;28;19915;-82